sensor_id;sensor_type;location;lat;lon;timestamp;P1;durP1;ratioP1;P2;durP2;ratioP2
59390;SDS011;53405;57.012;40.984;2023-03-21T00:01:48;13.75;;;7.38;;
59390;SDS011;53405;57.012;40.984;2023-03-21T00:04:17;15.27;;;7.43;;
59390;SDS011;53405;57.012;40.984;2023-03-21T00:06:46;14.65;;;7.38;;
59390;SDS011;53405;57.012;40.984;2023-03-21T00:09:13;13.38;;;7.20;;
59390;SDS011;53405;57.012;40.984;2023-03-21T00:11:40;12.95;;;7.25;;
59390;SDS011;53405;57.012;40.984;2023-03-21T00:14:08;11.30;;;6.93;;
59390;SDS011;53405;57.012;40.984;2023-03-21T00:16:40;15.43;;;7.00;;
59390;SDS011;53405;57.012;40.984;2023-03-21T00:19:07;12.85;;;7.05;;
59390;SDS011;53405;57.012;40.984;2023-03-21T00:21:36;13.73;;;7.73;;
59390;SDS011;53405;57.012;40.984;2023-03-21T00:24:17;11.27;;;6.82;;
59390;SDS011;53405;57.012;40.984;2023-03-21T00:26:44;12.68;;;7.70;;
59390;SDS011;53405;57.012;40.984;2023-03-21T00:29:12;14.25;;;8.02;;
59390;SDS011;53405;57.012;40.984;2023-03-21T00:31:39;12.95;;;7.55;;
59390;SDS011;53405;57.012;40.984;2023-03-21T00:34:06;17.30;;;8.10;;
59390;SDS011;53405;57.012;40.984;2023-03-21T00:36:33;15.18;;;7.78;;
59390;SDS011;53405;57.012;40.984;2023-03-21T00:39:01;13.05;;;7.43;;
59390;SDS011;53405;57.012;40.984;2023-03-21T00:41:31;14.20;;;8.02;;
59390;SDS011;53405;57.012;40.984;2023-03-21T00:44:14;13.38;;;7.47;;
59390;SDS011;53405;57.012;40.984;2023-03-21T00:46:41;15.30;;;7.78;;
59390;SDS011;53405;57.012;40.984;2023-03-21T00:49:29;13.98;;;7.63;;
59390;SDS011;53405;57.012;40.984;2023-03-21T00:52:01;12.52;;;7.18;;
59390;SDS011;53405;57.012;40.984;2023-03-21T00:54:41;12.88;;;7.55;;
59390;SDS011;53405;57.012;40.984;2023-03-21T00:57:08;14.93;;;8.40;;
59390;SDS011;53405;57.012;40.984;2023-03-21T00:59:35;15.05;;;8.20;;
59390;SDS011;53405;57.012;40.984;2023-03-21T01:02:02;13.95;;;8.07;;
59390;SDS011;53405;57.012;40.984;2023-03-21T01:04:33;20.42;;;8.77;;
59390;SDS011;53405;57.012;40.984;2023-03-21T01:07:00;14.38;;;8.05;;
59390;SDS011;53405;57.012;40.984;2023-03-21T01:09:27;15.00;;;8.25;;
59390;SDS011;53405;57.012;40.984;2023-03-21T01:11:56;16.97;;;8.73;;
59390;SDS011;53405;57.012;40.984;2023-03-21T01:14:23;15.85;;;8.73;;
59390;SDS011;53405;57.012;40.984;2023-03-21T01:16:52;14.57;;;8.77;;
59390;SDS011;53405;57.012;40.984;2023-03-21T01:19:21;14.80;;;8.60;;
59390;SDS011;53405;57.012;40.984;2023-03-21T01:22:03;14.68;;;8.43;;
59390;SDS011;53405;57.012;40.984;2023-03-21T01:24:31;14.25;;;8.70;;
59390;SDS011;53405;57.012;40.984;2023-03-21T01:27:01;16.13;;;8.60;;
59390;SDS011;53405;57.012;40.984;2023-03-21T01:29:28;15.32;;;8.60;;
59390;SDS011;53405;57.012;40.984;2023-03-21T01:31:56;21.05;;;9.07;;
59390;SDS011;53405;57.012;40.984;2023-03-21T01:34:23;14.63;;;8.90;;
59390;SDS011;53405;57.012;40.984;2023-03-21T01:36:53;14.68;;;8.63;;
59390;SDS011;53405;57.012;40.984;2023-03-21T01:39:20;16.83;;;8.63;;
59390;SDS011;53405;57.012;40.984;2023-03-21T01:41:49;14.85;;;9.30;;
59390;SDS011;53405;57.012;40.984;2023-03-21T01:44:19;16.95;;;9.05;;
59390;SDS011;53405;57.012;40.984;2023-03-21T01:46:49;15.70;;;9.93;;
59390;SDS011;53405;57.012;40.984;2023-03-21T01:49:37;21.13;;;9.32;;
59390;SDS011;53405;57.012;40.984;2023-03-21T01:52:39;19.13;;;10.00;;
59390;SDS011;53405;57.012;40.984;2023-03-21T01:55:18;13.88;;;8.77;;
59390;SDS011;53405;57.012;40.984;2023-03-21T01:57:57;19.00;;;9.95;;
59390;SDS011;53405;57.012;40.984;2023-03-21T02:00:56;17.33;;;10.77;;
59390;SDS011;53405;57.012;40.984;2023-03-21T02:03:35;17.90;;;10.75;;
59390;SDS011;53405;57.012;40.984;2023-03-21T02:09:32;31.45;;;16.25;;
59390;SDS011;53405;57.012;40.984;2023-03-21T02:12:09;43.92;;;23.42;;
59390;SDS011;53405;57.012;40.984;2023-03-21T02:14:37;32.45;;;18.65;;
59390;SDS011;53405;57.012;40.984;2023-03-21T02:17:59;39.38;;;20.52;;
59390;SDS011;53405;57.012;40.984;2023-03-21T02:23:33;30.27;;;16.25;;
59390;SDS011;53405;57.012;40.984;2023-03-21T02:29:29;23.05;;;13.23;;
59390;SDS011;53405;57.012;40.984;2023-03-21T02:37:50;25.50;;;13.90;;
59390;SDS011;53405;57.012;40.984;2023-03-21T02:40:41;26.40;;;15.02;;
59390;SDS011;53405;57.012;40.984;2023-03-21T02:46:18;26.98;;;14.90;;
59390;SDS011;53405;57.012;40.984;2023-03-21T02:49:07;24.58;;;14.25;;
59390;SDS011;53405;57.012;40.984;2023-03-21T02:51:35;29.10;;;15.32;;
59390;SDS011;53405;57.012;40.984;2023-03-21T02:54:08;25.77;;;14.38;;
59390;SDS011;53405;57.012;40.984;2023-03-21T02:56:57;25.83;;;14.40;;
59390;SDS011;53405;57.012;40.984;2023-03-21T02:59:26;29.40;;;15.43;;
59390;SDS011;53405;57.012;40.984;2023-03-21T03:01:57;34.30;;;16.13;;
59390;SDS011;53405;57.012;40.984;2023-03-21T03:04:26;30.20;;;16.23;;
59390;SDS011;53405;57.012;40.984;2023-03-21T03:18:28;23.92;;;14.25;;
59390;SDS011;53405;57.012;40.984;2023-03-21T03:21:09;26.65;;;14.70;;
59390;SDS011;53405;57.012;40.984;2023-03-21T03:23:59;27.38;;;14.43;;
59390;SDS011;53405;57.012;40.984;2023-03-21T03:26:37;28.92;;;14.68;;
59390;SDS011;53405;57.012;40.984;2023-03-21T03:29:15;23.67;;;14.27;;
59390;SDS011;53405;57.012;40.984;2023-03-21T03:31:48;21.80;;;14.00;;
59390;SDS011;53405;57.012;40.984;2023-03-21T03:34:25;23.13;;;14.43;;
59390;SDS011;53405;57.012;40.984;2023-03-21T03:37:01;24.25;;;15.23;;
59390;SDS011;53405;57.012;40.984;2023-03-21T03:39:38;29.17;;;16.25;;
59390;SDS011;53405;57.012;40.984;2023-03-21T03:42:14;29.10;;;16.35;;
59390;SDS011;53405;57.012;40.984;2023-03-21T03:45:08;24.27;;;14.85;;
59390;SDS011;53405;57.012;40.984;2023-03-21T03:47:46;31.70;;;15.67;;
59390;SDS011;53405;57.012;40.984;2023-03-21T03:50:30;27.40;;;16.00;;
59390;SDS011;53405;57.012;40.984;2023-03-21T03:53:17;29.00;;;15.05;;
59390;SDS011;53405;57.012;40.984;2023-03-21T03:55:52;25.25;;;14.98;;
59390;SDS011;53405;57.012;40.984;2023-03-21T03:58:22;31.02;;;16.33;;
59390;SDS011;53405;57.012;40.984;2023-03-21T04:01:01;23.90;;;14.75;;
59390;SDS011;53405;57.012;40.984;2023-03-21T04:03:29;27.48;;;15.35;;
59390;SDS011;53405;57.012;40.984;2023-03-21T04:06:11;24.98;;;15.25;;
59390;SDS011;53405;57.012;40.984;2023-03-21T04:08:39;26.58;;;16.13;;
59390;SDS011;53405;57.012;40.984;2023-03-21T04:11:06;27.08;;;16.13;;
59390;SDS011;53405;57.012;40.984;2023-03-21T04:13:36;28.17;;;15.88;;
59390;SDS011;53405;57.012;40.984;2023-03-21T04:16:07;24.58;;;14.82;;
59390;SDS011;53405;57.012;40.984;2023-03-21T04:18:37;26.63;;;15.00;;
59390;SDS011;53405;57.012;40.984;2023-03-21T04:21:10;27.60;;;15.88;;
59390;SDS011;53405;57.012;40.984;2023-03-21T04:23:40;30.83;;;16.70;;
59390;SDS011;53405;57.012;40.984;2023-03-21T04:26:08;25.63;;;15.97;;
59390;SDS011;53405;57.012;40.984;2023-03-21T04:28:41;25.75;;;14.52;;
59390;SDS011;53405;57.012;40.984;2023-03-21T04:31:20;30.75;;;16.20;;
59390;SDS011;53405;57.012;40.984;2023-03-21T04:34:04;28.83;;;16.60;;
59390;SDS011;53405;57.012;40.984;2023-03-21T04:36:38;26.02;;;16.40;;
59390;SDS011;53405;57.012;40.984;2023-03-21T04:39:13;24.88;;;14.55;;
59390;SDS011;53405;57.012;40.984;2023-03-21T04:41:45;27.27;;;16.45;;
59390;SDS011;53405;57.012;40.984;2023-03-21T04:44:13;32.03;;;17.38;;
59390;SDS011;53405;57.012;40.984;2023-03-21T04:46:42;29.83;;;16.63;;
59390;SDS011;53405;57.012;40.984;2023-03-21T04:49:11;27.42;;;16.13;;
59390;SDS011;53405;57.012;40.984;2023-03-21T04:51:41;30.08;;;16.38;;
59390;SDS011;53405;57.012;40.984;2023-03-21T04:54:15;29.73;;;15.80;;
59390;SDS011;53405;57.012;40.984;2023-03-21T04:56:42;29.05;;;16.10;;
59390;SDS011;53405;57.012;40.984;2023-03-21T04:59:12;28.67;;;15.98;;
59390;SDS011;53405;57.012;40.984;2023-03-21T05:01:41;29.20;;;16.48;;
59390;SDS011;53405;57.012;40.984;2023-03-21T05:04:10;29.40;;;17.42;;
59390;SDS011;53405;57.012;40.984;2023-03-21T05:06:40;27.10;;;15.98;;
59390;SDS011;53405;57.012;40.984;2023-03-21T05:09:10;31.75;;;16.63;;
59390;SDS011;53405;57.012;40.984;2023-03-21T05:11:39;27.73;;;15.85;;
59390;SDS011;53405;57.012;40.984;2023-03-21T05:14:09;28.45;;;16.88;;
59390;SDS011;53405;57.012;40.984;2023-03-21T05:16:40;27.92;;;15.95;;
59390;SDS011;53405;57.012;40.984;2023-03-21T05:19:15;28.52;;;16.98;;
59390;SDS011;53405;57.012;40.984;2023-03-21T05:21:45;27.48;;;16.13;;
59390;SDS011;53405;57.012;40.984;2023-03-21T05:24:20;27.80;;;16.50;;
59390;SDS011;53405;57.012;40.984;2023-03-21T05:26:49;27.27;;;15.98;;
59390;SDS011;53405;57.012;40.984;2023-03-21T05:29:21;28.65;;;15.48;;
59390;SDS011;53405;57.012;40.984;2023-03-21T05:31:54;28.10;;;16.20;;
59390;SDS011;53405;57.012;40.984;2023-03-21T05:34:23;27.90;;;16.05;;
59390;SDS011;53405;57.012;40.984;2023-03-21T05:36:51;27.85;;;15.18;;
59390;SDS011;53405;57.012;40.984;2023-03-21T05:39:20;28.30;;;15.05;;
59390;SDS011;53405;57.012;40.984;2023-03-21T05:42:13;27.70;;;15.82;;
59390;SDS011;53405;57.012;40.984;2023-03-21T05:44:41;26.67;;;14.95;;
59390;SDS011;53405;57.012;40.984;2023-03-21T05:47:10;26.38;;;14.88;;
59390;SDS011;53405;57.012;40.984;2023-03-21T05:49:44;28.17;;;16.40;;
59390;SDS011;53405;57.012;40.984;2023-03-21T05:52:14;24.40;;;15.30;;
59390;SDS011;53405;57.012;40.984;2023-03-21T05:57:11;25.48;;;14.95;;
59390;SDS011;53405;57.012;40.984;2023-03-21T05:59:52;26.13;;;14.05;;
59390;SDS011;53405;57.012;40.984;2023-03-21T06:02:19;27.58;;;15.30;;
59390;SDS011;53405;57.012;40.984;2023-03-21T06:04:48;28.88;;;16.30;;
59390;SDS011;53405;57.012;40.984;2023-03-21T06:07:19;29.02;;;13.85;;
59390;SDS011;53405;57.012;40.984;2023-03-21T06:09:48;24.85;;;14.55;;
59390;SDS011;53405;57.012;40.984;2023-03-21T06:12:16;25.63;;;15.02;;
59390;SDS011;53405;57.012;40.984;2023-03-21T06:15:00;25.42;;;14.77;;
59390;SDS011;53405;57.012;40.984;2023-03-21T06:17:32;25.35;;;15.95;;
59390;SDS011;53405;57.012;40.984;2023-03-21T06:20:06;27.10;;;14.98;;
59390;SDS011;53405;57.012;40.984;2023-03-21T06:22:40;29.77;;;16.42;;
59390;SDS011;53405;57.012;40.984;2023-03-21T06:25:08;27.98;;;15.82;;
59390;SDS011;53405;57.012;40.984;2023-03-21T06:27:35;30.50;;;16.63;;
59390;SDS011;53405;57.012;40.984;2023-03-21T06:30:05;27.42;;;16.33;;
59390;SDS011;53405;57.012;40.984;2023-03-21T06:32:43;28.88;;;16.98;;
59390;SDS011;53405;57.012;40.984;2023-03-21T06:35:14;27.20;;;15.25;;
59390;SDS011;53405;57.012;40.984;2023-03-21T06:37:42;28.75;;;15.85;;
59390;SDS011;53405;57.012;40.984;2023-03-21T06:42:39;30.13;;;15.10;;
59390;SDS011;53405;57.012;40.984;2023-03-21T06:47:36;25.73;;;14.40;;
59390;SDS011;53405;57.012;40.984;2023-03-21T06:50:11;30.33;;;15.88;;
59390;SDS011;53405;57.012;40.984;2023-03-21T06:52:42;33.90;;;16.40;;
59390;SDS011;53405;57.012;40.984;2023-03-21T06:55:11;27.73;;;15.55;;
59390;SDS011;53405;57.012;40.984;2023-03-21T06:57:39;29.15;;;15.85;;
59390;SDS011;53405;57.012;40.984;2023-03-21T07:00:08;29.92;;;16.08;;
59390;SDS011;53405;57.012;40.984;2023-03-21T07:02:41;28.33;;;15.43;;
59390;SDS011;53405;57.012;40.984;2023-03-21T07:05:13;31.73;;;14.95;;
59390;SDS011;53405;57.012;40.984;2023-03-21T07:07:42;25.20;;;15.20;;
59390;SDS011;53405;57.012;40.984;2023-03-21T07:10:10;25.70;;;12.85;;
59390;SDS011;53405;57.012;40.984;2023-03-21T07:12:53;26.48;;;14.40;;
59390;SDS011;53405;57.012;40.984;2023-03-21T07:15:25;24.95;;;14.00;;
59390;SDS011;53405;57.012;40.984;2023-03-21T07:17:52;23.73;;;13.00;;
59390;SDS011;53405;57.012;40.984;2023-03-21T07:20:19;26.25;;;14.05;;
59390;SDS011;53405;57.012;40.984;2023-03-21T07:22:47;22.40;;;13.32;;
59390;SDS011;53405;57.012;40.984;2023-03-21T07:25:15;24.05;;;13.57;;
59390;SDS011;53405;57.012;40.984;2023-03-21T07:27:43;23.75;;;14.43;;
59390;SDS011;53405;57.012;40.984;2023-03-21T07:30:12;26.70;;;15.43;;
59390;SDS011;53405;57.012;40.984;2023-03-21T07:32:40;27.88;;;16.52;;
59390;SDS011;53405;57.012;40.984;2023-03-21T07:35:12;26.13;;;15.18;;
59390;SDS011;53405;57.012;40.984;2023-03-21T07:37:41;27.08;;;14.38;;
59390;SDS011;53405;57.012;40.984;2023-03-21T07:40:11;26.83;;;15.70;;
59390;SDS011;53405;57.012;40.984;2023-03-21T07:42:39;25.30;;;14.50;;
59390;SDS011;53405;57.012;40.984;2023-03-21T07:45:09;25.75;;;14.43;;
59390;SDS011;53405;57.012;40.984;2023-03-21T07:47:39;19.77;;;12.90;;
59390;SDS011;53405;57.012;40.984;2023-03-21T07:50:06;21.02;;;13.63;;
59390;SDS011;53405;57.012;40.984;2023-03-21T07:52:34;23.02;;;13.80;;
59390;SDS011;53405;57.012;40.984;2023-03-21T07:55:01;26.50;;;13.40;;
59390;SDS011;53405;57.012;40.984;2023-03-21T07:57:29;20.52;;;12.10;;
59390;SDS011;53405;57.012;40.984;2023-03-21T07:59:57;22.85;;;13.75;;
59390;SDS011;53405;57.012;40.984;2023-03-21T08:02:24;20.65;;;12.88;;
59390;SDS011;53405;57.012;40.984;2023-03-21T08:04:52;20.48;;;11.73;;
59390;SDS011;53405;57.012;40.984;2023-03-21T08:07:19;24.70;;;12.77;;
59390;SDS011;53405;57.012;40.984;2023-03-21T08:09:46;19.42;;;12.20;;
59390;SDS011;53405;57.012;40.984;2023-03-21T08:12:13;22.08;;;12.15;;
59390;SDS011;53405;57.012;40.984;2023-03-21T08:14:41;20.48;;;11.95;;
59390;SDS011;53405;57.012;40.984;2023-03-21T08:17:08;22.23;;;11.57;;
59390;SDS011;53405;57.012;40.984;2023-03-21T08:19:36;21.58;;;11.80;;
59390;SDS011;53405;57.012;40.984;2023-03-21T08:22:03;19.90;;;12.02;;
59390;SDS011;53405;57.012;40.984;2023-03-21T08:24:32;22.17;;;13.07;;
59390;SDS011;53405;57.012;40.984;2023-03-21T08:27:00;21.25;;;12.32;;
59390;SDS011;53405;57.012;40.984;2023-03-21T08:29:28;20.98;;;11.80;;
59390;SDS011;53405;57.012;40.984;2023-03-21T08:31:55;21.58;;;12.77;;
59390;SDS011;53405;57.012;40.984;2023-03-21T08:34:23;22.95;;;13.80;;
59390;SDS011;53405;57.012;40.984;2023-03-21T08:36:52;21.88;;;13.68;;
59390;SDS011;53405;57.012;40.984;2023-03-21T08:39:20;24.80;;;14.82;;
59390;SDS011;53405;57.012;40.984;2023-03-21T08:41:47;25.02;;;13.45;;
59390;SDS011;53405;57.012;40.984;2023-03-21T08:44:14;25.83;;;13.32;;
59390;SDS011;53405;57.012;40.984;2023-03-21T08:46:42;20.55;;;12.65;;
59390;SDS011;53405;57.012;40.984;2023-03-21T08:49:10;22.73;;;13.75;;
59390;SDS011;53405;57.012;40.984;2023-03-21T08:51:38;23.85;;;13.20;;
59390;SDS011;53405;57.012;40.984;2023-03-21T08:54:07;20.77;;;12.52;;
59390;SDS011;53405;57.012;40.984;2023-03-21T08:56:34;20.50;;;11.73;;
59390;SDS011;53405;57.012;40.984;2023-03-21T08:59:03;20.65;;;11.52;;
59390;SDS011;53405;57.012;40.984;2023-03-21T09:01:30;18.58;;;11.48;;
59390;SDS011;53405;57.012;40.984;2023-03-21T09:03:58;22.67;;;11.55;;
59390;SDS011;53405;57.012;40.984;2023-03-21T09:06:25;21.63;;;12.40;;
59390;SDS011;53405;57.012;40.984;2023-03-21T09:08:53;22.00;;;11.80;;
59390;SDS011;53405;57.012;40.984;2023-03-21T09:11:20;23.80;;;13.30;;
59390;SDS011;53405;57.012;40.984;2023-03-21T09:13:49;22.07;;;12.60;;
59390;SDS011;53405;57.012;40.984;2023-03-21T09:16:16;23.75;;;12.82;;
59390;SDS011;53405;57.012;40.984;2023-03-21T09:18:44;22.42;;;12.45;;
59390;SDS011;53405;57.012;40.984;2023-03-21T09:21:14;23.77;;;12.23;;
59390;SDS011;53405;57.012;40.984;2023-03-21T09:23:44;20.05;;;12.23;;
59390;SDS011;53405;57.012;40.984;2023-03-21T09:26:11;29.75;;;14.27;;
59390;SDS011;53405;57.012;40.984;2023-03-21T09:28:39;23.90;;;12.90;;
59390;SDS011;53405;57.012;40.984;2023-03-21T09:31:06;28.17;;;13.40;;
59390;SDS011;53405;57.012;40.984;2023-03-21T09:33:37;25.50;;;13.45;;
59390;SDS011;53405;57.012;40.984;2023-03-21T09:36:08;24.05;;;12.15;;
59390;SDS011;53405;57.012;40.984;2023-03-21T09:38:45;17.80;;;10.43;;
59390;SDS011;53405;57.012;40.984;2023-03-21T09:47:23;15.52;;;10.05;;
59390;SDS011;53405;57.012;40.984;2023-03-21T09:49:52;18.25;;;10.15;;
59390;SDS011;53405;57.012;40.984;2023-03-21T09:55:37;17.55;;;10.90;;
59390;SDS011;53405;57.012;40.984;2023-03-21T10:00:59;18.35;;;10.70;;
59390;SDS011;53405;57.012;40.984;2023-03-21T10:03:33;18.85;;;11.10;;
59390;SDS011;53405;57.012;40.984;2023-03-21T10:06:19;18.73;;;11.65;;
59390;SDS011;53405;57.012;40.984;2023-03-21T10:08:59;18.92;;;10.55;;
59390;SDS011;53405;57.012;40.984;2023-03-21T10:11:42;19.27;;;10.60;;
59390;SDS011;53405;57.012;40.984;2023-03-21T10:17:10;19.58;;;10.60;;
59390;SDS011;53405;57.012;40.984;2023-03-21T10:19:42;19.15;;;10.85;;
59390;SDS011;53405;57.012;40.984;2023-03-21T10:22:12;20.08;;;11.15;;
59390;SDS011;53405;57.012;40.984;2023-03-21T10:24:39;22.48;;;12.20;;
59390;SDS011;53405;57.012;40.984;2023-03-21T10:27:08;20.90;;;11.45;;
59390;SDS011;53405;57.012;40.984;2023-03-21T10:29:42;21.15;;;11.40;;
59390;SDS011;53405;57.012;40.984;2023-03-21T10:32:12;22.95;;;12.07;;
59390;SDS011;53405;57.012;40.984;2023-03-21T10:34:49;18.15;;;10.50;;
59390;SDS011;53405;57.012;40.984;2023-03-21T10:37:28;20.67;;;10.95;;
59390;SDS011;53405;57.012;40.984;2023-03-21T10:39:55;18.40;;;10.05;;
59390;SDS011;53405;57.012;40.984;2023-03-21T10:42:23;17.67;;;10.63;;
59390;SDS011;53405;57.012;40.984;2023-03-21T10:44:53;19.92;;;12.23;;
59390;SDS011;53405;57.012;40.984;2023-03-21T10:47:27;21.85;;;11.27;;
59390;SDS011;53405;57.012;40.984;2023-03-21T10:50:07;18.83;;;11.68;;
59390;SDS011;53405;57.012;40.984;2023-03-21T10:52:44;17.98;;;11.40;;
59390;SDS011;53405;57.012;40.984;2023-03-21T10:55:23;21.95;;;12.63;;
59390;SDS011;53405;57.012;40.984;2023-03-21T10:58:07;20.23;;;11.70;;
59390;SDS011;53405;57.012;40.984;2023-03-21T11:00:44;20.00;;;12.27;;
59390;SDS011;53405;57.012;40.984;2023-03-21T11:03:18;23.70;;;12.80;;
59390;SDS011;53405;57.012;40.984;2023-03-21T11:05:52;19.15;;;12.13;;
59390;SDS011;53405;57.012;40.984;2023-03-21T11:08:22;20.30;;;12.35;;
59390;SDS011;53405;57.012;40.984;2023-03-21T11:10:52;19.23;;;11.20;;
59390;SDS011;53405;57.012;40.984;2023-03-21T11:13:31;20.15;;;12.13;;
59390;SDS011;53405;57.012;40.984;2023-03-21T11:16:24;18.45;;;11.57;;
59390;SDS011;53405;57.012;40.984;2023-03-21T11:19:02;17.55;;;11.75;;
59390;SDS011;53405;57.012;40.984;2023-03-21T11:21:38;20.30;;;11.43;;
59390;SDS011;53405;57.012;40.984;2023-03-21T11:24:08;19.80;;;11.43;;
59390;SDS011;53405;57.012;40.984;2023-03-21T11:26:43;20.50;;;11.98;;
59390;SDS011;53405;57.012;40.984;2023-03-21T11:32:01;21.98;;;12.13;;
59390;SDS011;53405;57.012;40.984;2023-03-21T11:34:46;18.38;;;11.90;;
59390;SDS011;53405;57.012;40.984;2023-03-21T11:37:20;18.15;;;11.10;;
59390;SDS011;53405;57.012;40.984;2023-03-21T11:43:02;30.40;;;12.25;;
59390;SDS011;53405;57.012;40.984;2023-03-21T11:46:23;16.85;;;9.02;;
59390;SDS011;53405;57.012;40.984;2023-03-21T11:48:48;16.35;;;9.40;;
59390;SDS011;53405;57.012;40.984;2023-03-21T12:10:19;11.40;;;5.53;;
59390;SDS011;53405;57.012;40.984;2023-03-21T12:21:05;9.00;;;5.60;;
59390;SDS011;53405;57.012;40.984;2023-03-21T12:23:44;10.15;;;6.18;;
59390;SDS011;53405;57.012;40.984;2023-03-21T12:26:21;10.35;;;6.43;;
59390;SDS011;53405;57.012;40.984;2023-03-21T12:28:59;11.43;;;6.45;;
59390;SDS011;53405;57.012;40.984;2023-03-21T12:31:49;10.02;;;5.72;;
59390;SDS011;53405;57.012;40.984;2023-03-21T12:45:40;10.40;;;6.13;;
59390;SDS011;53405;57.012;40.984;2023-03-21T12:50:52;12.63;;;6.35;;
59390;SDS011;53405;57.012;40.984;2023-03-21T12:54:06;11.43;;;6.22;;
59390;SDS011;53405;57.012;40.984;2023-03-21T13:02:30;11.70;;;7.30;;
59390;SDS011;53405;57.012;40.984;2023-03-21T13:05:09;14.18;;;7.93;;
59390;SDS011;53405;57.012;40.984;2023-03-21T13:07:56;13.13;;;7.45;;
59390;SDS011;53405;57.012;40.984;2023-03-21T13:10:28;10.93;;;7.18;;
59390;SDS011;53405;57.012;40.984;2023-03-21T13:18:19;15.52;;;7.75;;
59390;SDS011;53405;57.012;40.984;2023-03-21T13:24:03;14.23;;;8.20;;
59390;SDS011;53405;57.012;40.984;2023-03-21T13:26:47;13.13;;;8.00;;
59390;SDS011;53405;57.012;40.984;2023-03-21T13:29:49;14.45;;;8.02;;
59390;SDS011;53405;57.012;40.984;2023-03-21T13:34:55;14.10;;;8.02;;
59390;SDS011;53405;57.012;40.984;2023-03-21T13:37:31;15.48;;;8.90;;
59390;SDS011;53405;57.012;40.984;2023-03-21T13:40:02;12.38;;;7.32;;
59390;SDS011;53405;57.012;40.984;2023-03-21T13:42:44;11.75;;;8.00;;
59390;SDS011;53405;57.012;40.984;2023-03-21T13:48:24;12.75;;;7.22;;
59390;SDS011;53405;57.012;40.984;2023-03-21T13:51:04;11.73;;;7.38;;
59390;SDS011;53405;57.012;40.984;2023-03-21T13:53:41;12.82;;;8.15;;
59390;SDS011;53405;57.012;40.984;2023-03-21T13:59:11;12.43;;;7.88;;
59390;SDS011;53405;57.012;40.984;2023-03-21T14:04:19;15.25;;;8.52;;
59390;SDS011;53405;57.012;40.984;2023-03-21T14:09:35;14.88;;;8.45;;
59390;SDS011;53405;57.012;40.984;2023-03-21T14:12:07;13.98;;;8.77;;
59390;SDS011;53405;57.012;40.984;2023-03-21T14:14:42;15.50;;;8.45;;
59390;SDS011;53405;57.012;40.984;2023-03-21T14:17:13;13.25;;;8.18;;
59390;SDS011;53405;57.012;40.984;2023-03-21T14:19:55;15.45;;;8.38;;
59390;SDS011;53405;57.012;40.984;2023-03-21T14:22:26;16.13;;;9.07;;
59390;SDS011;53405;57.012;40.984;2023-03-21T14:24:55;12.95;;;8.32;;
59390;SDS011;53405;57.012;40.984;2023-03-21T14:27:26;15.90;;;8.73;;
59390;SDS011;53405;57.012;40.984;2023-03-21T14:29:56;15.55;;;9.40;;
59390;SDS011;53405;57.012;40.984;2023-03-21T14:32:25;15.10;;;9.02;;
59390;SDS011;53405;57.012;40.984;2023-03-21T14:34:58;16.15;;;9.85;;
59390;SDS011;53405;57.012;40.984;2023-03-21T14:37:32;14.25;;;8.82;;
59390;SDS011;53405;57.012;40.984;2023-03-21T14:40:07;17.48;;;9.73;;
59390;SDS011;53405;57.012;40.984;2023-03-21T14:42:55;18.05;;;9.45;;
59390;SDS011;53405;57.012;40.984;2023-03-21T14:45:27;15.18;;;9.45;;
59390;SDS011;53405;57.012;40.984;2023-03-21T14:47:59;17.70;;;10.10;;
59390;SDS011;53405;57.012;40.984;2023-03-21T14:50:30;16.13;;;10.10;;
59390;SDS011;53405;57.012;40.984;2023-03-21T14:56:00;19.30;;;10.77;;
59390;SDS011;53405;57.012;40.984;2023-03-21T14:58:29;16.52;;;9.75;;
59390;SDS011;53405;57.012;40.984;2023-03-21T15:00:59;17.50;;;10.15;;
59390;SDS011;53405;57.012;40.984;2023-03-21T15:03:30;19.23;;;9.95;;
59390;SDS011;53405;57.012;40.984;2023-03-21T15:06:03;17.30;;;9.77;;
59390;SDS011;53405;57.012;40.984;2023-03-21T15:08:30;17.77;;;9.75;;
59390;SDS011;53405;57.012;40.984;2023-03-21T15:11:01;17.63;;;9.98;;
59390;SDS011;53405;57.012;40.984;2023-03-21T15:13:34;19.15;;;10.77;;
59390;SDS011;53405;57.012;40.984;2023-03-21T15:16:18;17.50;;;10.35;;
59390;SDS011;53405;57.012;40.984;2023-03-21T15:18:46;17.48;;;9.95;;
59390;SDS011;53405;57.012;40.984;2023-03-21T15:21:21;16.38;;;10.10;;
59390;SDS011;53405;57.012;40.984;2023-03-21T15:23:54;19.88;;;10.27;;
59390;SDS011;53405;57.012;40.984;2023-03-21T15:26:26;15.82;;;9.43;;
59390;SDS011;53405;57.012;40.984;2023-03-21T15:28:57;15.88;;;9.13;;
59390;SDS011;53405;57.012;40.984;2023-03-21T15:31:30;18.08;;;8.82;;
59390;SDS011;53405;57.012;40.984;2023-03-21T15:34:02;17.48;;;8.85;;
59390;SDS011;53405;57.012;40.984;2023-03-21T15:36:31;14.10;;;8.25;;
59390;SDS011;53405;57.012;40.984;2023-03-21T15:39:03;17.13;;;9.10;;
59390;SDS011;53405;57.012;40.984;2023-03-21T15:41:32;15.65;;;9.18;;
59390;SDS011;53405;57.012;40.984;2023-03-21T15:46:33;18.13;;;9.38;;
59390;SDS011;53405;57.012;40.984;2023-03-21T15:54:13;16.33;;;8.68;;
59390;SDS011;53405;57.012;40.984;2023-03-21T15:56:43;15.25;;;8.45;;
59390;SDS011;53405;57.012;40.984;2023-03-21T15:59:17;16.42;;;8.73;;
59390;SDS011;53405;57.012;40.984;2023-03-21T16:01:48;15.57;;;8.82;;
59390;SDS011;53405;57.012;40.984;2023-03-21T16:04:17;15.10;;;8.25;;
59390;SDS011;53405;57.012;40.984;2023-03-21T16:06:52;15.32;;;8.20;;
59390;SDS011;53405;57.012;40.984;2023-03-21T16:09:37;16.17;;;8.98;;
59390;SDS011;53405;57.012;40.984;2023-03-21T16:12:09;15.02;;;8.75;;
59390;SDS011;53405;57.012;40.984;2023-03-21T16:14:38;16.42;;;8.88;;
59390;SDS011;53405;57.012;40.984;2023-03-21T16:17:46;16.52;;;9.15;;
59390;SDS011;53405;57.012;40.984;2023-03-21T16:20:13;14.25;;;8.73;;
59390;SDS011;53405;57.012;40.984;2023-03-21T16:22:46;15.27;;;8.85;;
59390;SDS011;53405;57.012;40.984;2023-03-21T16:25:14;17.83;;;10.27;;
59390;SDS011;53405;57.012;40.984;2023-03-21T16:27:41;15.23;;;8.25;;
59390;SDS011;53405;57.012;40.984;2023-03-21T16:30:10;15.18;;;8.68;;
59390;SDS011;53405;57.012;40.984;2023-03-21T16:32:40;14.52;;;8.77;;
59390;SDS011;53405;57.012;40.984;2023-03-21T16:35:07;15.13;;;8.50;;
59390;SDS011;53405;57.012;40.984;2023-03-21T16:37:35;16.35;;;9.15;;
59390;SDS011;53405;57.012;40.984;2023-03-21T16:40:05;15.38;;;8.77;;
59390;SDS011;53405;57.012;40.984;2023-03-21T16:42:49;13.43;;;7.63;;
59390;SDS011;53405;57.012;40.984;2023-03-21T16:45:16;13.80;;;7.57;;
59390;SDS011;53405;57.012;40.984;2023-03-21T16:47:43;13.13;;;8.05;;
59390;SDS011;53405;57.012;40.984;2023-03-21T16:52:59;14.52;;;8.32;;
59390;SDS011;53405;57.012;40.984;2023-03-21T16:55:28;17.20;;;8.18;;
59390;SDS011;53405;57.012;40.984;2023-03-21T16:57:55;14.43;;;8.68;;
59390;SDS011;53405;57.012;40.984;2023-03-21T17:00:24;13.85;;;8.13;;
59390;SDS011;53405;57.012;40.984;2023-03-21T17:02:54;13.05;;;7.97;;
59390;SDS011;53405;57.012;40.984;2023-03-21T17:05:23;13.50;;;8.27;;
59390;SDS011;53405;57.012;40.984;2023-03-21T17:07:52;15.07;;;7.68;;